sensor_id;sensor_type;location;lat;lon;timestamp;P1;durP1;ratioP1;P2;durP2;ratioP2
1360;SDS011;674;45.552;-122.600;2023-04-24T00:00:40;11.20;;;5.67;;
1360;SDS011;674;45.552;-122.600;2023-04-24T00:03:08;13.90;;;5.33;;
1360;SDS011;674;45.552;-122.600;2023-04-24T00:05:37;15.90;;;6.60;;
1360;SDS011;674;45.552;-122.600;2023-04-24T00:08:07;11.27;;;5.20;;
1360;SDS011;674;45.552;-122.600;2023-04-24T00:10:35;11.37;;;5.43;;
1360;SDS011;674;45.552;-122.600;2023-04-24T00:13:04;14.53;;;5.80;;
1360;SDS011;674;45.552;-122.600;2023-04-24T00:15:32;10.27;;;5.23;;
1360;SDS011;674;45.552;-122.600;2023-04-24T00:18:00;13.87;;;5.60;;
1360;SDS011;674;45.552;-122.600;2023-04-24T00:20:29;14.00;;;6.67;;
1360;SDS011;674;45.552;-122.600;2023-04-24T00:22:59;10.30;;;5.53;;
1360;SDS011;674;45.552;-122.600;2023-04-24T00:25:28;16.73;;;6.23;;
1360;SDS011;674;45.552;-122.600;2023-04-24T00:27:56;14.70;;;6.07;;
1360;SDS011;674;45.552;-122.600;2023-04-24T00:30:24;10.80;;;5.30;;
1360;SDS011;674;45.552;-122.600;2023-04-24T00:32:53;12.57;;;5.77;;
1360;SDS011;674;45.552;-122.600;2023-04-24T00:35:21;16.70;;;6.23;;
1360;SDS011;674;45.552;-122.600;2023-04-24T00:37:50;12.13;;;6.13;;
1360;SDS011;674;45.552;-122.600;2023-04-24T00:40:18;11.93;;;5.87;;
1360;SDS011;674;45.552;-122.600;2023-04-24T00:42:47;8.87;;;5.10;;
1360;SDS011;674;45.552;-122.600;2023-04-24T00:45:15;13.33;;;5.37;;
1360;SDS011;674;45.552;-122.600;2023-04-24T00:47:44;10.57;;;4.83;;
1360;SDS011;674;45.552;-122.600;2023-04-24T00:50:14;11.93;;;5.87;;
1360;SDS011;674;45.552;-122.600;2023-04-24T00:52:43;13.30;;;6.00;;
1360;SDS011;674;45.552;-122.600;2023-04-24T00:55:11;14.30;;;6.30;;
1360;SDS011;674;45.552;-122.600;2023-04-24T00:57:40;11.67;;;6.00;;
1360;SDS011;674;45.552;-122.600;2023-04-24T01:00:09;16.37;;;6.40;;
1360;SDS011;674;45.552;-122.600;2023-04-24T01:02:39;12.23;;;6.70;;
1360;SDS011;674;45.552;-122.600;2023-04-24T01:05:12;13.00;;;6.40;;
1360;SDS011;674;45.552;-122.600;2023-04-24T01:07:43;11.10;;;6.37;;
1360;SDS011;674;45.552;-122.600;2023-04-24T01:10:15;13.57;;;6.13;;
1360;SDS011;674;45.552;-122.600;2023-04-24T01:12:44;10.93;;;6.33;;
1360;SDS011;674;45.552;-122.600;2023-04-24T01:15:13;14.07;;;6.10;;
1360;SDS011;674;45.552;-122.600;2023-04-24T01:17:42;11.80;;;7.90;;
1360;SDS011;674;45.552;-122.600;2023-04-24T01:20:11;16.20;;;7.83;;
1360;SDS011;674;45.552;-122.600;2023-04-24T01:22:40;14.10;;;7.00;;
1360;SDS011;674;45.552;-122.600;2023-04-24T01:25:09;10.37;;;6.23;;
1360;SDS011;674;45.552;-122.600;2023-04-24T01:27:37;9.70;;;6.60;;
1360;SDS011;674;45.552;-122.600;2023-04-24T01:30:06;17.57;;;6.70;;
1360;SDS011;674;45.552;-122.600;2023-04-24T01:32:36;15.40;;;6.37;;
1360;SDS011;674;45.552;-122.600;2023-04-24T01:35:05;12.50;;;6.67;;
1360;SDS011;674;45.552;-122.600;2023-04-24T01:37:34;14.90;;;6.70;;
1360;SDS011;674;45.552;-122.600;2023-04-24T01:40:07;12.53;;;6.00;;
1360;SDS011;674;45.552;-122.600;2023-04-24T01:42:36;13.40;;;6.07;;
1360;SDS011;674;45.552;-122.600;2023-04-24T01:45:05;14.97;;;6.90;;
1360;SDS011;674;45.552;-122.600;2023-04-24T01:47:33;14.03;;;6.20;;
1360;SDS011;674;45.552;-122.600;2023-04-24T01:50:02;10.53;;;5.47;;
1360;SDS011;674;45.552;-122.600;2023-04-24T01:52:31;11.00;;;5.90;;
1360;SDS011;674;45.552;-122.600;2023-04-24T01:55:00;14.13;;;5.87;;
1360;SDS011;674;45.552;-122.600;2023-04-24T01:57:30;12.07;;;6.73;;
1360;SDS011;674;45.552;-122.600;2023-04-24T01:59:59;14.23;;;6.73;;
1360;SDS011;674;45.552;-122.600;2023-04-24T02:02:27;9.97;;;5.20;;
1360;SDS011;674;45.552;-122.600;2023-04-24T02:04:57;14.13;;;6.20;;
1360;SDS011;674;45.552;-122.600;2023-04-24T02:07:25;13.80;;;5.80;;
1360;SDS011;674;45.552;-122.600;2023-04-24T02:09:53;10.53;;;5.00;;
1360;SDS011;674;45.552;-122.600;2023-04-24T02:12:22;9.57;;;5.20;;
1360;SDS011;674;45.552;-122.600;2023-04-24T02:14:50;12.37;;;4.73;;
1360;SDS011;674;45.552;-122.600;2023-04-24T02:17:19;8.50;;;4.67;;
1360;SDS011;674;45.552;-122.600;2023-04-24T02:19:47;10.48;;;5.65;;
1360;SDS011;674;45.552;-122.600;2023-04-24T02:22:15;11.90;;;4.30;;
1360;SDS011;674;45.552;-122.600;2023-04-24T02:24:44;9.93;;;5.33;;
1360;SDS011;674;45.552;-122.600;2023-04-24T02:27:12;12.60;;;4.33;;
1360;SDS011;674;45.552;-122.600;2023-04-24T02:29:41;11.23;;;4.30;;
1360;SDS011;674;45.552;-122.600;2023-04-24T02:32:09;10.30;;;5.17;;
1360;SDS011;674;45.552;-122.600;2023-04-24T02:34:39;12.17;;;4.73;;
1360;SDS011;674;45.552;-122.600;2023-04-24T02:37:07;9.70;;;3.97;;
1360;SDS011;674;45.552;-122.600;2023-04-24T02:39:36;13.40;;;5.30;;
1360;SDS011;674;45.552;-122.600;2023-04-24T02:42:04;7.57;;;3.93;;
1360;SDS011;674;45.552;-122.600;2023-04-24T02:44:32;7.13;;;4.70;;
1360;SDS011;674;45.552;-122.600;2023-04-24T02:47:01;9.10;;;4.90;;
1360;SDS011;674;45.552;-122.600;2023-04-24T02:49:29;11.63;;;5.07;;
1360;SDS011;674;45.552;-122.600;2023-04-24T02:51:57;12.57;;;4.60;;
1360;SDS011;674;45.552;-122.600;2023-04-24T02:54:26;9.10;;;5.37;;
1360;SDS011;674;45.552;-122.600;2023-04-24T02:56:54;11.00;;;5.07;;
1360;SDS011;674;45.552;-122.600;2023-04-24T02:59:24;7.90;;;4.20;;
1360;SDS011;674;45.552;-122.600;2023-04-24T03:01:54;11.20;;;4.93;;
1360;SDS011;674;45.552;-122.600;2023-04-24T03:04:22;7.40;;;4.50;;
1360;SDS011;674;45.552;-122.600;2023-04-24T03:06:51;6.53;;;4.70;;
1360;SDS011;674;45.552;-122.600;2023-04-24T03:09:21;10.00;;;4.20;;
1360;SDS011;674;45.552;-122.600;2023-04-24T03:11:50;7.23;;;4.63;;
1360;SDS011;674;45.552;-122.600;2023-04-24T03:14:18;12.13;;;6.13;;
1360;SDS011;674;45.552;-122.600;2023-04-24T03:16:47;8.70;;;5.10;;
1360;SDS011;674;45.552;-122.600;2023-04-24T03:19:15;7.20;;;4.73;;
1360;SDS011;674;45.552;-122.600;2023-04-24T03:21:43;9.73;;;6.10;;
1360;SDS011;674;45.552;-122.600;2023-04-24T03:24:12;8.50;;;4.77;;
1360;SDS011;674;45.552;-122.600;2023-04-24T03:26:41;14.53;;;5.07;;
1360;SDS011;674;45.552;-122.600;2023-04-24T03:29:09;9.27;;;4.60;;
1360;SDS011;674;45.552;-122.600;2023-04-24T03:31:37;12.43;;;4.90;;
1360;SDS011;674;45.552;-122.600;2023-04-24T03:34:06;9.07;;;4.60;;
1360;SDS011;674;45.552;-122.600;2023-04-24T03:36:34;7.40;;;4.13;;
1360;SDS011;674;45.552;-122.600;2023-04-24T03:39:02;7.57;;;4.37;;
1360;SDS011;674;45.552;-122.600;2023-04-24T03:41:31;12.73;;;5.00;;
1360;SDS011;674;45.552;-122.600;2023-04-24T03:43:59;7.07;;;4.00;;
1360;SDS011;674;45.552;-122.600;2023-04-24T03:46:27;8.13;;;4.03;;
1360;SDS011;674;45.552;-122.600;2023-04-24T03:48:56;13.00;;;4.83;;
1360;SDS011;674;45.552;-122.600;2023-04-24T03:51:24;7.23;;;4.87;;
1360;SDS011;674;45.552;-122.600;2023-04-24T03:53:54;9.17;;;4.80;;
1360;SDS011;674;45.552;-122.600;2023-04-24T03:56:23;9.77;;;4.97;;
1360;SDS011;674;45.552;-122.600;2023-04-24T03:58:51;11.77;;;5.47;;
1360;SDS011;674;45.552;-122.600;2023-04-24T04:01:19;10.83;;;5.03;;
1360;SDS011;674;45.552;-122.600;2023-04-24T04:03:48;13.37;;;5.20;;
1360;SDS011;674;45.552;-122.600;2023-04-24T04:06:16;14.67;;;7.77;;
1360;SDS011;674;45.552;-122.600;2023-04-24T04:08:46;13.03;;;6.80;;
1360;SDS011;674;45.552;-122.600;2023-04-24T04:11:14;13.60;;;5.30;;
1360;SDS011;674;45.552;-122.600;2023-04-24T04:13:43;9.23;;;5.17;;
1360;SDS011;674;45.552;-122.600;2023-04-24T04:16:11;10.40;;;5.80;;
1360;SDS011;674;45.552;-122.600;2023-04-24T04:18:39;11.50;;;6.20;;
1360;SDS011;674;45.552;-122.600;2023-04-24T04:21:08;10.17;;;4.80;;
1360;SDS011;674;45.552;-122.600;2023-04-24T04:23:36;10.53;;;5.07;;
1360;SDS011;674;45.552;-122.600;2023-04-24T04:26:05;8.33;;;5.07;;
1360;SDS011;674;45.552;-122.600;2023-04-24T04:28:35;11.37;;;5.73;;
1360;SDS011;674;45.552;-122.600;2023-04-24T04:31:05;10.10;;;4.83;;
1360;SDS011;674;45.552;-122.600;2023-04-24T04:33:34;12.07;;;5.50;;
1360;SDS011;674;45.552;-122.600;2023-04-24T04:36:05;7.23;;;4.33;;
1360;SDS011;674;45.552;-122.600;2023-04-24T04:38:33;9.30;;;5.30;;
1360;SDS011;674;45.552;-122.600;2023-04-24T04:41:02;9.60;;;5.30;;
1360;SDS011;674;45.552;-122.600;2023-04-24T04:43:30;7.60;;;5.10;;
1360;SDS011;674;45.552;-122.600;2023-04-24T04:45:59;8.70;;;4.93;;
1360;SDS011;674;45.552;-122.600;2023-04-24T04:48:28;8.87;;;5.07;;
1360;SDS011;674;45.552;-122.600;2023-04-24T04:50:58;10.00;;;5.37;;
1360;SDS011;674;45.552;-122.600;2023-04-24T04:53:26;11.70;;;5.20;;
1360;SDS011;674;45.552;-122.600;2023-04-24T04:55:55;14.27;;;5.33;;
1360;SDS011;674;45.552;-122.600;2023-04-24T04:58:23;9.57;;;4.60;;
1360;SDS011;674;45.552;-122.600;2023-04-24T05:00:51;7.97;;;5.00;;
1360;SDS011;674;45.552;-122.600;2023-04-24T05:03:20;8.27;;;4.60;;
1360;SDS011;674;45.552;-122.600;2023-04-24T05:05:48;9.43;;;4.73;;
1360;SDS011;674;45.552;-122.600;2023-04-24T05:08:17;8.97;;;5.10;;
1360;SDS011;674;45.552;-122.600;2023-04-24T05:10:53;12.43;;;4.73;;
1360;SDS011;674;45.552;-122.600;2023-04-24T05:13:22;9.67;;;4.83;;
1360;SDS011;674;45.552;-122.600;2023-04-24T05:16:05;13.27;;;4.73;;
1360;SDS011;674;45.552;-122.600;2023-04-24T05:18:33;8.27;;;4.33;;
1360;SDS011;674;45.552;-122.600;2023-04-24T05:21:02;7.37;;;4.07;;
1360;SDS011;674;45.552;-122.600;2023-04-24T05:23:30;11.57;;;4.43;;
1360;SDS011;674;45.552;-122.600;2023-04-24T05:25:58;9.67;;;4.17;;
1360;SDS011;674;45.552;-122.600;2023-04-24T05:28:27;6.83;;;3.80;;
1360;SDS011;674;45.552;-122.600;2023-04-24T05:30:55;9.73;;;4.20;;
1360;SDS011;674;45.552;-122.600;2023-04-24T05:33:24;12.73;;;4.73;;
1360;SDS011;674;45.552;-122.600;2023-04-24T05:35:52;10.03;;;4.50;;
1360;SDS011;674;45.552;-122.600;2023-04-24T05:38:21;8.87;;;4.73;;
1360;SDS011;674;45.552;-122.600;2023-04-24T05:40:49;9.07;;;4.50;;
1360;SDS011;674;45.552;-122.600;2023-04-24T05:43:17;11.27;;;4.83;;
1360;SDS011;674;45.552;-122.600;2023-04-24T05:45:46;11.87;;;4.70;;
1360;SDS011;674;45.552;-122.600;2023-04-24T05:48:14;10.30;;;4.30;;
1360;SDS011;674;45.552;-122.600;2023-04-24T05:50:43;6.00;;;4.83;;
1360;SDS011;674;45.552;-122.600;2023-04-24T05:53:11;9.20;;;4.30;;
1360;SDS011;674;45.552;-122.600;2023-04-24T05:55:39;10.40;;;4.00;;
1360;SDS011;674;45.552;-122.600;2023-04-24T05:58:08;8.70;;;3.93;;
1360;SDS011;674;45.552;-122.600;2023-04-24T06:00:36;8.87;;;4.70;;
1360;SDS011;674;45.552;-122.600;2023-04-24T06:03:06;9.00;;;4.30;;
1360;SDS011;674;45.552;-122.600;2023-04-24T06:05:35;6.80;;;4.27;;
1360;SDS011;674;45.552;-122.600;2023-04-24T06:08:04;9.03;;;4.60;;
1360;SDS011;674;45.552;-122.600;2023-04-24T06:10:32;11.07;;;4.30;;
1360;SDS011;674;45.552;-122.600;2023-04-24T06:13:00;10.70;;;4.63;;
1360;SDS011;674;45.552;-122.600;2023-04-24T06:15:29;11.50;;;4.73;;
1360;SDS011;674;45.552;-122.600;2023-04-24T06:17:58;11.50;;;4.87;;
1360;SDS011;674;45.552;-122.600;2023-04-24T06:20:26;10.90;;;5.40;;
1360;SDS011;674;45.552;-122.600;2023-04-24T06:22:55;9.23;;;5.37;;
1360;SDS011;674;45.552;-122.600;2023-04-24T06:25:26;9.70;;;5.20;;
1360;SDS011;674;45.552;-122.600;2023-04-24T06:27:55;8.17;;;4.07;;
1360;SDS011;674;45.552;-122.600;2023-04-24T06:30:24;11.10;;;5.23;;
1360;SDS011;674;45.552;-122.600;2023-04-24T06:32:52;10.97;;;4.90;;
1360;SDS011;674;45.552;-122.600;2023-04-24T06:35:28;16.70;;;5.50;;
1360;SDS011;674;45.552;-122.600;2023-04-24T06:37:56;7.90;;;4.73;;
1360;SDS011;674;45.552;-122.600;2023-04-24T06:40:24;9.27;;;5.17;;
1360;SDS011;674;45.552;-122.600;2023-04-24T06:42:53;8.80;;;5.90;;
1360;SDS011;674;45.552;-122.600;2023-04-24T06:45:21;12.47;;;5.07;;
1360;SDS011;674;45.552;-122.600;2023-04-24T06:47:49;11.87;;;5.40;;
1360;SDS011;674;45.552;-122.600;2023-04-24T06:50:18;8.43;;;4.17;;
1360;SDS011;674;45.552;-122.600;2023-04-24T06:52:46;7.70;;;5.03;;
1360;SDS011;674;45.552;-122.600;2023-04-24T06:55:15;7.43;;;3.93;;
1360;SDS011;674;45.552;-122.600;2023-04-24T06:57:43;9.83;;;5.07;;
1360;SDS011;674;45.552;-122.600;2023-04-24T07:00:12;9.17;;;4.13;;
1360;SDS011;674;45.552;-122.600;2023-04-24T07:02:40;9.90;;;5.23;;
1360;SDS011;674;45.552;-122.600;2023-04-24T07:05:09;8.43;;;4.23;;
1360;SDS011;674;45.552;-122.600;2023-04-24T07:07:38;11.73;;;5.30;;
1360;SDS011;674;45.552;-122.600;2023-04-24T07:10:07;9.63;;;5.10;;
1360;SDS011;674;45.552;-122.600;2023-04-24T07:12:36;11.00;;;4.90;;
1360;SDS011;674;45.552;-122.600;2023-04-24T07:15:05;12.47;;;6.10;;
1360;SDS011;674;45.552;-122.600;2023-04-24T07:17:35;10.30;;;4.80;;
1360;SDS011;674;45.552;-122.600;2023-04-24T07:20:05;13.03;;;5.23;;
1360;SDS011;674;45.552;-122.600;2023-04-24T07:22:37;16.00;;;5.13;;
1360;SDS011;674;45.552;-122.600;2023-04-24T07:25:06;7.20;;;4.00;;
1360;SDS011;674;45.552;-122.600;2023-04-24T07:27:35;11.30;;;7.97;;
1360;SDS011;674;45.552;-122.600;2023-04-24T07:30:04;10.63;;;6.60;;
1360;SDS011;674;45.552;-122.600;2023-04-24T07:32:34;9.50;;;5.60;;
1360;SDS011;674;45.552;-122.600;2023-04-24T07:35:02;13.00;;;7.40;;
1360;SDS011;674;45.552;-122.600;2023-04-24T07:37:31;10.60;;;6.50;;
1360;SDS011;674;45.552;-122.600;2023-04-24T07:39:59;13.00;;;7.53;;
1360;SDS011;674;45.552;-122.600;2023-04-24T07:42:27;16.23;;;8.37;;
1360;SDS011;674;45.552;-122.600;2023-04-24T07:44:57;21.43;;;9.30;;
1360;SDS011;674;45.552;-122.600;2023-04-24T07:47:26;17.40;;;10.60;;
1360;SDS011;674;45.552;-122.600;2023-04-24T07:49:55;18.90;;;8.53;;
1360;SDS011;674;45.552;-122.600;2023-04-24T07:52:23;17.80;;;8.37;;
1360;SDS011;674;45.552;-122.600;2023-04-24T07:54:52;13.13;;;7.90;;
1360;SDS011;674;45.552;-122.600;2023-04-24T07:57:25;9.30;;;6.00;;
1360;SDS011;674;45.552;-122.600;2023-04-24T07:59:53;14.10;;;6.77;;
1360;SDS011;674;45.552;-122.600;2023-04-24T08:02:22;10.30;;;5.47;;
1360;SDS011;674;45.552;-122.600;2023-04-24T08:04:53;10.80;;;5.87;;
1360;SDS011;674;45.552;-122.600;2023-04-24T08:07:25;7.10;;;4.60;;
1360;SDS011;674;45.552;-122.600;2023-04-24T08:09:54;7.80;;;5.27;;
1360;SDS011;674;45.552;-122.600;2023-04-24T08:12:22;11.90;;;5.87;;
1360;SDS011;674;45.552;-122.600;2023-04-24T08:14:50;9.20;;;5.30;;
1360;SDS011;674;45.552;-122.600;2023-04-24T08:17:19;10.17;;;6.30;;
1360;SDS011;674;45.552;-122.600;2023-04-24T08:19:47;11.00;;;5.03;;
1360;SDS011;674;45.552;-122.600;2023-04-24T08:22:16;7.30;;;4.27;;
1360;SDS011;674;45.552;-122.600;2023-04-24T08:24:45;12.00;;;4.67;;
1360;SDS011;674;45.552;-122.600;2023-04-24T08:27:14;9.10;;;4.97;;
1360;SDS011;674;45.552;-122.600;2023-04-24T08:29:42;7.30;;;4.27;;
1360;SDS011;674;45.552;-122.600;2023-04-24T08:32:10;9.03;;;4.33;;
1360;SDS011;674;45.552;-122.600;2023-04-24T08:34:39;5.77;;;4.27;;
1360;SDS011;674;45.552;-122.600;2023-04-24T08:37:07;15.67;;;5.10;;
1360;SDS011;674;45.552;-122.600;2023-04-24T08:39:36;7.40;;;4.10;;
1360;SDS011;674;45.552;-122.600;2023-04-24T08:42:05;7.53;;;3.57;;
1360;SDS011;674;45.552;-122.600;2023-04-24T08:44:35;9.90;;;4.70;;
1360;SDS011;674;45.552;-122.600;2023-04-24T08:47:04;5.00;;;4.10;;
1360;SDS011;674;45.552;-122.600;2023-04-24T08:49:35;7.83;;;3.47;;
1360;SDS011;674;45.552;-122.600;2023-04-24T08:52:05;8.10;;;3.30;;
1360;SDS011;674;45.552;-122.600;2023-04-24T08:54:34;6.03;;;3.57;;
1360;SDS011;674;45.552;-122.600;2023-04-24T08:57:03;9.30;;;3.50;;
1360;SDS011;674;45.552;-122.600;2023-04-24T08:59:31;5.43;;;2.93;;
1360;SDS011;674;45.552;-122.600;2023-04-24T09:02:00;6.30;;;3.10;;
1360;SDS011;674;45.552;-122.600;2023-04-24T09:04:31;8.40;;;3.10;;
1360;SDS011;674;45.552;-122.600;2023-04-24T09:07:02;4.30;;;2.20;;
1360;SDS011;674;45.552;-122.600;2023-04-24T09:09:33;4.90;;;2.37;;
1360;SDS011;674;45.552;-122.600;2023-04-24T09:12:03;7.30;;;2.43;;
1360;SDS011;674;45.552;-122.600;2023-04-24T09:14:31;5.83;;;2.63;;
1360;SDS011;674;45.552;-122.600;2023-04-24T09:17:00;5.73;;;2.43;;
1360;SDS011;674;45.552;-122.600;2023-04-24T09:19:29;4.83;;;2.13;;
1360;SDS011;674;45.552;-122.600;2023-04-24T09:21:57;4.07;;;2.30;;
1360;SDS011;674;45.552;-122.600;2023-04-24T09:24:26;8.37;;;2.83;;
1360;SDS011;674;45.552;-122.600;2023-04-24T09:26:56;4.43;;;2.80;;
1360;SDS011;674;45.552;-122.600;2023-04-24T09:29:36;3.93;;;2.50;;
1360;SDS011;674;45.552;-122.600;2023-04-24T09:32:21;6.00;;;2.90;;
1360;SDS011;674;45.552;-122.600;2023-04-24T09:37:43;3.53;;;2.03;;
1360;SDS011;674;45.552;-122.600;2023-04-24T09:40:17;5.67;;;2.30;;
1360;SDS011;674;45.552;-122.600;2023-04-24T09:42:56;4.67;;;1.97;;
1360;SDS011;674;45.552;-122.600;2023-04-24T09:45:28;4.17;;;2.20;;
1360;SDS011;674;45.552;-122.600;2023-04-24T09:48:03;6.70;;;2.37;;
1360;SDS011;674;45.552;-122.600;2023-04-24T09:50:33;3.53;;;2.10;;
1360;SDS011;674;45.552;-122.600;2023-04-24T09:53:02;3.77;;;2.20;;
1360;SDS011;674;45.552;-122.600;2023-04-24T09:55:32;3.63;;;2.07;;
1360;SDS011;674;45.552;-122.600;2023-04-24T09:58:00;6.70;;;2.17;;
1360;SDS011;674;45.552;-122.600;2023-04-24T10:00:32;5.10;;;2.40;;
1360;SDS011;674;45.552;-122.600;2023-04-24T10:03:02;5.40;;;2.47;;
1360;SDS011;674;45.552;-122.600;2023-04-24T10:05:32;4.70;;;2.33;;
1360;SDS011;674;45.552;-122.600;2023-04-24T10:10:35;9.03;;;2.63;;
1360;SDS011;674;45.552;-122.600;2023-04-24T10:13:11;8.20;;;2.17;;
1360;SDS011;674;45.552;-122.600;2023-04-24T10:15:42;5.27;;;2.10;;
1360;SDS011;674;45.552;-122.600;2023-04-24T10:18:11;4.93;;;2.50;;
1360;SDS011;674;45.552;-122.600;2023-04-24T10:20:39;5.90;;;2.40;;
1360;SDS011;674;45.552;-122.600;2023-04-24T10:23:08;4.70;;;2.20;;
1360;SDS011;674;45.552;-122.600;2023-04-24T10:25:38;3.40;;;1.60;;
1360;SDS011;674;45.552;-122.600;2023-04-24T10:28:07;5.27;;;2.53;;
1360;SDS011;674;45.552;-122.600;2023-04-24T10:30:36;3.73;;;2.00;;
1360;SDS011;674;45.552;-122.600;2023-04-24T10:33:07;4.80;;;2.50;;
1360;SDS011;674;45.552;-122.600;2023-04-24T10:35:38;5.33;;;2.40;;
1360;SDS011;674;45.552;-122.600;2023-04-24T10:38:13;4.63;;;2.37;;
1360;SDS011;674;45.552;-122.600;2023-04-24T10:40:44;5.50;;;2.03;;
1360;SDS011;674;45.552;-122.600;2023-04-24T10:43:13;5.57;;;2.13;;
1360;SDS011;674;45.552;-122.600;2023-04-24T10:46:00;3.77;;;2.10;;
1360;SDS011;674;45.552;-122.600;2023-04-24T10:48:30;3.40;;;2.10;;
1360;SDS011;674;45.552;-122.600;2023-04-24T10:50:59;6.70;;;2.40;;
1360;SDS011;674;45.552;-122.600;2023-04-24T10:53:29;5.47;;;2.40;;
1360;SDS011;674;45.552;-122.600;2023-04-24T10:56:05;6.23;;;2.30;;
1360;SDS011;674;45.552;-122.600;2023-04-24T11:01:07;4.20;;;1.60;;
1360;SDS011;674;45.552;-122.600;2023-04-24T11:03:35;6.93;;;2.30;;
1360;SDS011;674;45.552;-122.600;2023-04-24T11:06:05;4.47;;;1.73;;
1360;SDS011;674;45.552;-122.600;2023-04-24T11:08:38;10.10;;;2.00;;
1360;SDS011;674;45.552;-122.600;2023-04-24T11:11:12;2.97;;;1.60;;
1360;SDS011;674;45.552;-122.600;2023-04-24T11:14:00;4.77;;;2.00;;
1360;SDS011;674;45.552;-122.600;2023-04-24T11:19:09;4.90;;;1.97;;
1360;SDS011;674;45.552;-122.600;2023-04-24T11:21:46;4.03;;;2.00;;
1360;SDS011;674;45.552;-122.600;2023-04-24T11:27:18;7.10;;;2.37;;
1360;SDS011;674;45.552;-122.600;2023-04-24T11:29:48;5.27;;;1.90;;
1360;SDS011;674;45.552;-122.600;2023-04-24T11:34:59;6.60;;;2.20;;
1360;SDS011;674;45.552;-122.600;2023-04-24T11:37:35;3.03;;;1.93;;
1360;SDS011;674;45.552;-122.600;2023-04-24T11:40:08;8.20;;;2.53;;
1360;SDS011;674;45.552;-122.600;2023-04-24T11:42:46;5.07;;;2.30;;
1360;SDS011;674;45.552;-122.600;2023-04-24T11:45:16;3.70;;;2.30;;
1360;SDS011;674;45.552;-122.600;2023-04-24T11:48:04;3.63;;;1.83;;
1360;SDS011;674;45.552;-122.600;2023-04-24T11:50:33;3.90;;;1.60;;
1360;SDS011;674;45.552;-122.600;2023-04-24T11:53:01;4.10;;;2.07;;
1360;SDS011;674;45.552;-122.600;2023-04-24T11:55:31;7.00;;;1.87;;
1360;SDS011;674;45.552;-122.600;2023-04-24T11:58:00;3.60;;;1.63;;
1360;SDS011;674;45.552;-122.600;2023-04-24T12:00:29;5.20;;;1.90;;
1360;SDS011;674;45.552;-122.600;2023-04-24T12:03:07;4.73;;;1.97;;
1360;SDS011;674;45.552;-122.600;2023-04-24T12:05:38;3.23;;;1.60;;
1360;SDS011;674;45.552;-122.600;2023-04-24T12:08:07;3.80;;;1.90;;
1360;SDS011;674;45.552;-122.600;2023-04-24T12:10:36;2.40;;;1.23;;
1360;SDS011;674;45.552;-122.600;2023-04-24T12:13:04;2.57;;;1.60;;
1360;SDS011;674;45.552;-122.600;2023-04-24T12:15:33;3.50;;;1.80;;
1360;SDS011;674;45.552;-122.600;2023-04-24T12:18:01;3.90;;;2.10;;
1360;SDS011;674;45.552;-122.600;2023-04-24T12:20:31;4.87;;;1.93;;
1360;SDS011;674;45.552;-122.600;2023-04-24T12:23:00;3.40;;;1.83;;
1360;SDS011;674;45.552;-122.600;2023-04-24T12:25:30;3.40;;;1.70;;
1360;SDS011;674;45.552;-122.600;2023-04-24T12:30:40;3.77;;;1.87;;
1360;SDS011;674;45.552;-122.600;2023-04-24T12:33:18;2.70;;;1.40;;
1360;SDS011;674;45.552;-122.600;2023-04-24T12:35:48;5.47;;;1.90;;
1360;SDS011;674;45.552;-122.600;2023-04-24T12:38:23;5.33;;;2.07;;
1360;SDS011;674;45.552;-122.600;2023-04-24T12:41:03;4.97;;;2.13;;
1360;SDS011;674;45.552;-122.600;2023-04-24T12:43:33;5.53;;;2.17;;
1360;SDS011;674;45.552;-122.600;2023-04-24T12:46:02;4.10;;;1.80;;
1360;SDS011;674;45.552;-122.600;2023-04-24T12:48:31;3.93;;;1.93;;
1360;SDS011;674;45.552;-122.600;2023-04-24T12:50:59;4.03;;;1.90;;
1360;SDS011;674;45.552;-122.600;2023-04-24T12:53:28;4.83;;;1.80;;
1360;SDS011;674;45.552;-122.600;2023-04-24T12:55:58;6.00;;;1.60;;
1360;SDS011;674;45.552;-122.600;2023-04-24T12:58:26;3.53;;;1.80;;
1360;SDS011;674;45.552;-122.600;2023-04-24T13:00:55;6.43;;;2.00;;
1360;SDS011;674;45.552;-122.600;2023-04-24T13:03:23;4.10;;;1.77;;
1360;SDS011;674;45.552;-122.600;2023-04-24T13:05:53;3.90;;;1.67;;
1360;SDS011;674;45.552;-122.600;2023-04-24T13:08:21;3.37;;;1.57;;
1360;SDS011;674;45.552;-122.600;2023-04-24T13:10:50;4.00;;;1.20;;
1360;SDS011;674;45.552;-122.600;2023-04-24T13:13:19;4.07;;;1.53;;
1360;SDS011;674;45.552;-122.600;2023-04-24T13:15:47;3.10;;;2.20;;
1360;SDS011;674;45.552;-122.600;2023-04-24T13:18:15;3.10;;;1.60;;
1360;SDS011;674;45.552;-122.600;2023-04-24T13:20:44;3.50;;;1.40;;
1360;SDS011;674;45.552;-122.600;2023-04-24T13:23:14;3.93;;;1.53;;
1360;SDS011;674;45.552;-122.600;2023-04-24T13:25:43;4.17;;;2.23;;
1360;SDS011;674;45.552;-122.600;2023-04-24T13:28:11;7.10;;;1.67;;
1360;SDS011;674;45.552;-122.600;2023-04-24T13:30:42;4.23;;;1.90;;
1360;SDS011;674;45.552;-122.600;2023-04-24T13:33:12;5.33;;;1.93;;
1360;SDS011;674;45.552;-122.600;2023-04-24T13:35:40;3.17;;;1.20;;
1360;SDS011;674;45.552;-122.600;2023-04-24T13:38:09;2.77;;;1.40;;
1360;SDS011;674;45.552;-122.600;2023-04-24T13:40:37;3.03;;;1.25;;
1360;SDS011;674;45.552;-122.600;2023-04-24T13:43:06;2.80;;;1.50;;
1360;SDS011;674;45.552;-122.600;2023-04-24T13:45:34;5.70;;;1.70;;
1360;SDS011;674;45.552;-122.600;2023-04-24T13:48:03;7.80;;;1.50;;
1360;SDS011;674;45.552;-122.600;2023-04-24T13:50:31;5.10;;;1.77;;
1360;SDS011;674;45.552;-122.600;2023-04-24T13:53:00;3.90;;;1.30;;
1360;SDS011;674;45.552;-122.600;2023-04-24T13:55:29;3.70;;;1.70;;
1360;SDS011;674;45.552;-122.600;2023-04-24T13:57:58;5.10;;;2.07;;
1360;SDS011;674;45.552;-122.600;2023-04-24T14:00:27;4.10;;;2.00;;
1360;SDS011;674;45.552;-122.600;2023-04-24T14:02:56;7.00;;;2.17;;
1360;SDS011;674;45.552;-122.600;2023-04-24T14:05:24;5.67;;;2.73;;
1360;SDS011;674;45.552;-122.600;2023-04-24T14:07:53;4.23;;;2.53;;
1360;SDS011;674;45.552;-122.600;2023-04-24T14:10:21;6.27;;;2.30;;
1360;SDS011;674;45.552;-122.600;2023-04-24T14:12:50;5.20;;;1.90;;
1360;SDS011;674;45.552;-122.600;2023-04-24T14:15:19;4.40;;;2.13;;
1360;SDS011;674;45.552;-122.600;2023-04-24T14:17:47;5.07;;;2.57;;
1360;SDS011;674;45.552;-122.600;2023-04-24T14:20:17;4.60;;;2.10;;
1360;SDS011;674;45.552;-122.600;2023-04-24T14:22:45;4.43;;;1.80;;
1360;SDS011;674;45.552;-122.600;2023-04-24T14:25:14;4.17;;;2.33;;
1360;SDS011;674;45.552;-122.600;2023-04-24T14:27:43;4.87;;;2.27;;
1360;SDS011;674;45.552;-122.600;2023-04-24T14:30:11;3.83;;;1.53;;
1360;SDS011;674;45.552;-122.600;2023-04-24T14:32:40;5.17;;;2.17;;
1360;SDS011;674;45.552;-122.600;2023-04-24T14:35:09;4.27;;;1.93;;
1360;SDS011;674;45.552;-122.600;2023-04-24T14:37:37;5.43;;;2.50;;
1360;SDS011;674;45.552;-122.600;2023-04-24T14:40:08;4.73;;;2.13;;
1360;SDS011;674;45.552;-122.600;2023-04-24T14:42:57;3.73;;;1.40;;
1360;SDS011;674;45.552;-122.600;2023-04-24T14:45:26;3.90;;;1.50;;
1360;SDS011;674;45.552;-122.600;2023-04-24T14:47:55;6.40;;;2.33;;
1360;SDS011;674;45.552;-122.600;2023-04-24T14:50:23;4.57;;;1.70;;
1360;SDS011;674;45.552;-122.600;2023-04-24T14:52:55;9.87;;;5.70;;
1360;SDS011;674;45.552;-122.600;2023-04-24T14:55:29;4.33;;;2.97;;
1360;SDS011;674;45.552;-122.600;2023-04-24T14:57:57;5.87;;;3.03;;
1360;SDS011;674;45.552;-122.600;2023-04-24T15:00:26;7.22;;;2.00;;
1360;SDS011;674;45.552;-122.600;2023-04-24T15:02:54;4.90;;;2.40;;
1360;SDS011;674;45.552;-122.600;2023-04-24T15:05:23;4.50;;;2.57;;
1360;SDS011;674;45.552;-122.600;2023-04-24T15:07:52;3.30;;;1.67;;
1360;SDS011;674;45.552;-122.600;2023-04-24T15:10:20;6.33;;;1.90;;
1360;SDS011;674;45.552;-122.600;2023-04-24T15:12:51;5.80;;;1.40;;
1360;SDS011;674;45.552;-122.600;2023-04-24T15:15:19;2.53;;;1.07;;